createdAt,value
2019-03-01T00:00:33.067Z,60.80
2019-03-01T00:01:38.220Z,60.81
2019-03-01T00:02:41.742Z,60.76
2019-03-01T00:03:46.002Z,60.69
2019-03-01T00:05:10.714Z,60.70
2019-03-01T00:06:29.448Z,60.69
2019-03-01T00:09:38.573Z,60.76
2019-03-01T00:11:19.572Z,60.71
2019-03-01T00:12:34.740Z,60.56
2019-03-01T00:14:04.819Z,60.25
2019-03-01T00:15:44.006Z,60.26
2019-03-01T00:17:12.872Z,60.32
2019-03-01T00:18:25.523Z,60.09
2019-03-01T00:19:51.342Z,60.21
2019-03-01T00:21:15.200Z,60.16
2019-03-01T00:22:40.935Z,60.15
2019-03-01T00:23:53.797Z,60.13
2019-03-01T00:25:12.421Z,60.11
2019-03-01T00:26:37.011Z,60.04
2019-03-01T00:27:59.746Z,60.19
2019-03-01T00:29:17.957Z,60.28
2019-03-01T00:30:41.226Z,60.28
2019-03-01T00:31:53.321Z,60.28
2019-03-01T00:33:07.518Z,60.15
2019-03-01T00:34:38.012Z,60.11
2019-03-01T00:35:47.005Z,60.26
2019-03-01T00:37:16.124Z,60.56
2019-03-01T00:38:28.137Z,60.90
2019-03-01T00:39:51.168Z,60.92
2019-03-01T00:41:03.780Z,60.91
2019-03-01T00:42:16.275Z,60.96
2019-03-01T00:43:34.777Z,60.95
2019-03-01T00:44:43.492Z,60.97
2019-03-01T00:45:47.013Z,61.05
2019-03-01T00:46:50.542Z,61.06
2019-03-01T00:47:54.198Z,61.14
2019-03-01T00:48:57.967Z,61.16
2019-03-01T00:50:03.940Z,61.12
2019-03-01T00:51:07.609Z,61.22
2019-03-01T00:52:11.455Z,61.31
2019-03-01T00:53:15.056Z,61.25
2019-03-01T00:54:18.723Z,61.28
2019-03-01T00:55:22.377Z,61.20
2019-03-01T00:56:26.162Z,61.25
2019-03-01T00:57:30.050Z,61.42
2019-03-01T00:58:33.547Z,61.45
2019-03-01T00:59:37.092Z,61.47
2019-03-01T01:00:46.691Z,61.35
2019-03-01T01:01:50.226Z,61.44
2019-03-01T01:02:53.817Z,61.51
2019-03-01T01:03:57.578Z,61.49
2019-03-01T01:05:02.136Z,61.55
2019-03-01T01:06:05.651Z,61.66
2019-03-01T01:07:09.230Z,61.61
2019-03-01T01:08:12.737Z,61.59
2019-03-01T01:09:16.282Z,61.63
2019-03-01T01:10:19.878Z,61.71
2019-03-01T01:11:23.578Z,61.70
2019-03-01T01:12:27.058Z,61.83
2019-03-01T01:13:30.640Z,61.86
2019-03-01T01:14:34.240Z,61.88
2019-03-01T01:15:37.991Z,61.91
2019-03-01T01:16:41.769Z,62.07
2019-03-01T01:17:45.298Z,62.34
2019-03-01T01:18:48.930Z,62.23
2019-03-01T01:19:52.610Z,62.36
2019-03-01T01:20:56.128Z,62.41
2019-03-01T01:21:59.859Z,62.39
2019-03-01T01:23:03.543Z,62.37
2019-03-01T01:24:07.288Z,62.33
2019-03-01T01:25:10.988Z,62.38
2019-03-01T01:26:14.503Z,62.40
2019-03-01T01:27:18.004Z,62.46
2019-03-01T01:28:21.532Z,62.48
2019-03-01T01:29:25.054Z,62.46
2019-03-01T01:30:28.646Z,62.35
2019-03-01T01:31:32.273Z,62.20
2019-03-01T01:32:35.846Z,62.04
2019-03-01T01:33:39.338Z,62.02
2019-03-01T01:34:42.935Z,61.97
2019-03-01T01:35:46.513Z,61.98
2019-03-01T01:36:50.118Z,62.02
2019-03-01T01:37:53.702Z,61.98
2019-03-01T01:38:57.395Z,61.97
2019-03-01T01:40:01.049Z,61.97
2019-03-01T01:41:04.692Z,62.16
2019-03-01T01:42:08.184Z,62.07
2019-03-01T01:43:11.897Z,62.08
2019-03-01T01:44:15.402Z,62.01
2019-03-01T01:45:18.962Z,61.97
2019-03-01T01:46:22.474Z,61.86
2019-03-01T01:47:25.968Z,61.87
2019-03-01T01:48:29.555Z,61.83
2019-03-01T01:49:33.156Z,61.86
2019-03-01T01:50:36.728Z,62.10
2019-03-01T01:51:40.246Z,62.34
2019-03-01T01:52:43.804Z,62.41
2019-03-01T01:53:47.426Z,62.36
2019-03-01T01:54:51.024Z,62.32
2019-03-01T01:55:54.527Z,62.26
2019-03-01T01:56:58.062Z,62.18
2019-03-01T01:58:01.770Z,62.15
2019-03-01T01:59:05.435Z,62.16
2019-03-01T02:00:11.952Z,62.17
2019-03-01T02:01:15.460Z,62.19
2019-03-01T02:02:19.132Z,62.18
2019-03-01T02:03:22.787Z,62.32
2019-03-01T02:04:26.492Z,62.57
2019-03-01T02:05:30.192Z,62.51
2019-03-01T02:06:33.772Z,62.61
2019-03-01T02:07:37.438Z,62.55
2019-03-01T02:08:41.083Z,62.51
2019-03-01T02:09:44.631Z,62.45
2019-03-01T02:10:48.258Z,62.42
2019-03-01T02:11:51.931Z,62.36
2019-03-01T02:12:55.488Z,62.33
2019-03-01T02:13:59.130Z,62.32
2019-03-01T02:15:02.647Z,62.21
2019-03-01T02:16:06.201Z,62.15
2019-03-01T02:17:09.729Z,62.04
2019-03-01T02:18:13.278Z,62.06
2019-03-01T02:19:16.791Z,62.19
2019-03-01T02:20:20.486Z,62.22
2019-03-01T02:21:23.944Z,62.33
2019-03-01T02:22:27.483Z,62.38
2019-03-01T02:23:31.109Z,62.50
2019-03-01T02:24:34.571Z,62.52
2019-03-01T02:25:38.163Z,62.54
2019-03-01T02:26:41.785Z,62.50
2019-03-01T02:27:46.984Z,62.36
2019-03-01T02:28:50.710Z,62.43
2019-03-01T02:29:54.591Z,62.35
2019-03-01T02:31:01.172Z,62.28
2019-03-01T02:32:04.844Z,62.29
2019-03-01T02:33:08.419Z,62.36
2019-03-01T02:34:11.950Z,62.40
2019-03-01T02:35:17.761Z,62.46
2019-03-01T02:36:21.281Z,62.60
2019-03-01T02:37:24.918Z,62.61
2019-03-01T02:38:28.479Z,62.62
2019-03-01T02:39:32.019Z,62.59
2019-03-01T02:40:38.518Z,62.56
2019-03-01T02:41:42.205Z,62.56
2019-03-01T02:42:45.702Z,62.38
2019-03-01T02:43:49.375Z,62.18
2019-03-01T02:44:52.892Z,62.19
2019-03-01T02:45:56.505Z,62.29
2019-03-01T02:46:59.988Z,62.35
2019-03-01T02:48:03.724Z,62.39
2019-03-01T02:49:07.226Z,62.32
2019-03-01T02:50:12.984Z,62.36
2019-03-01T02:51:16.541Z,62.42
2019-03-01T02:52:20.149Z,62.48
2019-03-01T02:53:23.699Z,62.49
2019-03-01T02:54:27.217Z,62.42
2019-03-01T02:55:30.840Z,62.36
2019-03-01T02:56:34.394Z,62.35
2019-03-01T02:57:37.988Z,62.33
2019-03-01T02:58:41.466Z,62.41
2019-03-01T02:59:45.078Z,62.46
2019-03-01T03:00:48.597Z,62.46
2019-03-01T03:01:52.283Z,62.51
2019-03-01T03:02:55.909Z,62.40
2019-03-01T03:03:59.403Z,62.58
2019-03-01T03:05:03.177Z,62.79
2019-03-01T03:06:08.341Z,63.06
2019-03-01T03:07:16.079Z,63.13
2019-03-01T03:08:19.937Z,63.22
2019-03-01T03:09:23.503Z,63.22
2019-03-01T03:10:27.171Z,63.19
2019-03-01T03:11:30.731Z,63.18
2019-03-01T03:12:34.277Z,63.26
2019-03-01T03:13:38.214Z,63.29
2019-03-01T03:14:53.956Z,63.24
2019-03-01T03:16:00.737Z,63.08
2019-03-01T03:17:06.787Z,62.98
2019-03-01T03:18:16.277Z,62.97
2019-03-01T03:19:19.788Z,62.93
2019-03-01T03:20:23.355Z,62.91
2019-03-01T03:21:27.075Z,63.02
2019-03-01T03:22:30.632Z,63.26
2019-03-01T03:23:34.149Z,63.19
2019-03-01T03:24:37.723Z,63.13
2019-03-01T03:25:41.258Z,63.05
2019-03-01T03:26:44.832Z,62.99
2019-03-01T03:27:48.330Z,63.14
2019-03-01T03:28:51.849Z,63.14
2019-03-01T03:29:55.658Z,63.24
2019-03-01T03:31:00.923Z,63.28
2019-03-01T03:32:06.174Z,63.20
2019-03-01T03:33:09.659Z,63.09
2019-03-01T03:34:14.381Z,62.88
2019-03-01T03:35:17.887Z,62.83
2019-03-01T03:36:21.403Z,62.86
2019-03-01T03:37:25.649Z,62.86
2019-03-01T03:38:29.155Z,62.83
2019-03-01T03:39:32.864Z,62.82
2019-03-01T03:40:36.434Z,62.92
2019-03-01T03:41:42.879Z,62.99
2019-03-01T03:42:46.464Z,62.90
2019-03-01T03:43:50.065Z,62.93
2019-03-01T03:44:53.979Z,62.88
2019-03-01T03:45:57.484Z,62.83
2019-03-01T03:47:00.989Z,62.84
2019-03-01T03:48:04.664Z,62.90
2019-03-01T03:49:08.210Z,62.89
2019-03-01T03:50:13.745Z,62.99
2019-03-01T03:51:17.420Z,62.86
2019-03-01T03:52:20.999Z,62.81
2019-03-01T03:53:24.525Z,62.82
2019-03-01T03:54:28.040Z,62.75
2019-03-01T03:55:31.677Z,62.79
2019-03-01T03:56:35.251Z,62.76
2019-03-01T03:57:38.978Z,62.82
2019-03-01T03:58:42.676Z,62.85
2019-03-01T03:59:46.191Z,62.86
2019-03-01T04:00:50.023Z,62.86
2019-03-01T04:01:53.645Z,62.90
2019-03-01T04:02:57.238Z,62.93
2019-03-01T04:04:00.848Z,62.83
2019-03-01T04:05:06.073Z,62.73
2019-03-01T04:06:09.721Z,62.67
2019-03-01T04:07:13.365Z,62.62
2019-03-01T04:08:16.952Z,62.69
2019-03-01T04:09:20.584Z,62.64
2019-03-01T04:10:24.098Z,62.52
2019-03-01T04:11:27.675Z,62.43
2019-03-01T04:12:31.533Z,62.52
2019-03-01T04:13:35.036Z,62.55
2019-03-01T04:14:38.576Z,62.52
2019-03-01T04:15:42.199Z,62.42
2019-03-01T04:16:45.924Z,62.33
2019-03-01T04:17:49.669Z,62.16
2019-03-01T04:18:53.375Z,62.04
2019-03-01T04:19:56.914Z,61.88
2019-03-01T04:21:00.408Z,61.79
2019-03-01T04:22:04.070Z,61.62
2019-03-01T04:23:07.615Z,61.53
2019-03-01T04:24:11.504Z,61.38
2019-03-01T04:25:15.351Z,61.25
2019-03-01T04:26:18.832Z,61.07
2019-03-01T04:27:22.357Z,60.81
2019-03-01T04:28:25.893Z,60.56
2019-03-01T04:29:33.104Z,60.31
2019-03-01T04:30:36.646Z,60.25
2019-03-01T04:31:40.150Z,59.98
2019-03-01T04:32:43.709Z,59.90
2019-03-01T04:33:47.236Z,59.74
2019-03-01T04:34:50.791Z,59.64
2019-03-01T04:35:54.366Z,59.55
2019-03-01T04:36:57.973Z,59.35
2019-03-01T04:38:01.468Z,59.30
2019-03-01T04:39:06.919Z,59.30
2019-03-01T04:40:15.254Z,59.32
2019-03-01T04:41:18.766Z,59.30
2019-03-01T04:42:22.289Z,59.17
2019-03-01T04:43:25.779Z,59.22
2019-03-01T04:44:29.354Z,59.06
2019-03-01T04:45:32.871Z,58.94
2019-03-01T04:46:36.416Z,58.90
2019-03-01T04:47:39.945Z,58.81
2019-03-01T04:48:43.937Z,59.23
2019-03-01T04:49:48.226Z,59.23
2019-03-01T04:50:51.751Z,58.94
2019-03-01T04:51:55.555Z,58.92
2019-03-01T04:52:59.070Z,59.46
2019-03-01T04:54:02.620Z,59.46
2019-03-01T04:55:09.218Z,58.82
2019-03-01T04:56:12.944Z,58.83
2019-03-01T04:57:16.572Z,58.80
2019-03-01T04:58:20.137Z,58.81
2019-03-01T04:59:24.047Z,58.81
2019-03-01T05:00:27.749Z,58.87
2019-03-01T05:01:31.451Z,58.81
2019-03-01T05:02:35.031Z,58.74
2019-03-01T05:03:38.743Z,58.74
2019-03-01T05:04:42.309Z,58.89
2019-03-01T05:05:45.864Z,59.31
2019-03-01T05:06:51.069Z,59.31
2019-03-01T05:07:54.695Z,58.84
2019-03-01T05:08:58.206Z,58.78
2019-03-01T05:10:01.694Z,58.84
2019-03-01T05:11:05.290Z,58.88
2019-03-01T05:12:08.947Z,58.58
2019-03-01T05:13:12.502Z,58.59
2019-03-01T05:14:16.046Z,58.59
2019-03-01T05:15:21.585Z,58.85
2019-03-01T05:16:25.328Z,59.40
2019-03-01T05:17:28.890Z,59.40
2019-03-01T05:18:32.565Z,58.93
2019-03-01T05:19:36.073Z,58.89
2019-03-01T05:20:39.644Z,58.89
2019-03-01T05:21:43.187Z,58.93
2019-03-01T05:22:46.756Z,59.05
2019-03-01T05:23:50.273Z,59.61
2019-03-01T05:24:53.787Z,59.61
2019-03-01T05:25:57.348Z,59.17
2019-03-01T05:27:00.934Z,59.25
2019-03-01T05:28:04.573Z,59.68
2019-03-01T05:29:08.208Z,59.63
2019-03-01T05:30:14.820Z,59.62
2019-03-01T05:31:18.419Z,59.91
2019-03-01T05:32:21.970Z,59.81
2019-03-01T05:33:25.674Z,59.72
2019-03-01T05:34:29.328Z,59.64
2019-03-01T05:35:33.037Z,59.54
2019-03-01T05:36:36.626Z,59.51
2019-03-01T05:37:40.584Z,59.44
2019-03-01T05:38:44.587Z,59.42
2019-03-01T05:39:48.467Z,59.27
2019-03-01T05:40:52.051Z,59.30
2019-03-01T05:41:55.613Z,59.35
2019-03-01T05:42:59.237Z,58.48
2019-03-01T05:44:02.801Z,58.94
2019-03-01T05:45:18.088Z,59.17
2019-03-01T05:46:21.606Z,59.22
2019-03-01T05:47:25.267Z,59.28
2019-03-01T05:48:28.767Z,59.37
2019-03-01T05:49:32.275Z,59.38
2019-03-01T05:50:35.850Z,59.38
2019-03-01T05:51:39.344Z,59.47
2019-03-01T05:52:42.944Z,59.50
2019-03-01T05:53:46.531Z,59.59
2019-03-01T05:54:53.306Z,59.62
2019-03-01T05:55:56.870Z,59.24
2019-03-01T05:57:00.407Z,59.24
2019-03-01T05:58:21.750Z,59.14
2019-03-01T05:59:25.413Z,58.90
2019-03-01T06:00:28.912Z,58.62
2019-03-01T06:01:35.760Z,58.44
2019-03-01T06:02:42.450Z,58.16
2019-03-01T06:04:00.702Z,58.44
2019-03-01T06:05:06.613Z,58.58
2019-03-01T06:06:13.215Z,58.58
2019-03-01T06:07:46.653Z,58.63
2019-03-01T06:09:26.273Z,58.71
2019-03-01T06:10:41.663Z,58.83
2019-03-01T06:11:53.765Z,58.89
2019-03-01T06:13:22.716Z,58.94
2019-03-01T06:14:51.501Z,58.99
2019-03-01T06:15:58.046Z,59.00
2019-03-01T06:17:13.126Z,59.06
2019-03-01T06:18:44.904Z,59.01
2019-03-01T06:19:54.474Z,58.94
2019-03-01T06:21:06.664Z,58.95
2019-03-01T06:22:16.197Z,58.95
2019-03-01T06:23:28.681Z,58.95
2019-03-01T06:24:38.025Z,58.94
2019-03-01T06:25:53.371Z,58.94
2019-03-01T06:27:16.628Z,59.00
2019-03-01T06:28:34.583Z,59.03
2019-03-01T06:29:59.908Z,59.09
2019-03-01T06:31:24.444Z,59.17
2019-03-01T06:32:42.292Z,59.21
2019-03-01T06:33:58.075Z,59.21
2019-03-01T06:35:13.689Z,59.21
2019-03-01T06:36:29.461Z,59.14
2019-03-01T06:37:41.663Z,59.14
2019-03-01T06:39:04.776Z,59.17
2019-03-01T06:40:36.765Z,59.12
2019-03-01T06:41:43.298Z,59.19
2019-03-01T06:42:49.965Z,59.20
2019-03-01T06:44:08.752Z,59.22
2019-03-01T06:45:23.941Z,59.29
2019-03-01T06:46:56.200Z,59.31
2019-03-01T06:50:26.702Z,59.36
2019-03-01T06:51:30.656Z,59.42
2019-03-01T06:52:34.179Z,59.41
2019-03-01T06:53:37.699Z,58.86
2019-03-01T06:55:44.815Z,58.63
2019-03-01T06:56:48.370Z,58.66
2019-03-01T06:57:51.897Z,58.63
2019-03-01T06:58:55.837Z,58.21
2019-03-01T06:59:59.343Z,57.84
2019-03-01T07:01:04.651Z,58.21
2019-03-01T07:02:08.535Z,58.11
2019-03-01T07:03:12.206Z,58.18
2019-03-01T07:04:15.958Z,58.07
2019-03-01T07:05:19.487Z,58.07
2019-03-01T07:06:23.306Z,57.91
2019-03-01T07:07:26.879Z,58.15
2019-03-01T07:08:30.442Z,57.91
2019-03-01T07:09:33.933Z,57.84
2019-03-01T07:10:37.451Z,57.94
2019-03-01T07:11:41.027Z,57.96
2019-03-01T07:12:44.616Z,57.49
2019-03-01T07:13:48.203Z,57.86
2019-03-01T07:14:51.689Z,57.68
2019-03-01T07:15:55.231Z,58.10
2019-03-01T07:16:58.823Z,58.02
2019-03-01T07:18:04.323Z,57.26
2019-03-01T07:19:07.944Z,57.26
2019-03-01T07:20:12.687Z,57.47
2019-03-01T07:21:16.418Z,57.48
2019-03-01T07:22:20.006Z,57.40
2019-03-01T07:23:23.552Z,57.22
2019-03-01T07:24:31.884Z,57.09
2019-03-01T07:25:35.396Z,57.09
2019-03-01T07:26:46.375Z,56.87
2019-03-01T07:27:49.882Z,56.62
2019-03-01T07:28:53.505Z,56.52
2019-03-01T07:29:57.084Z,56.36
2019-03-01T07:31:41.302Z,56.36
2019-03-01T07:32:44.854Z,56.25
2019-03-01T07:33:48.420Z,56.24
2019-03-01T07:36:16.857Z,56.06
2019-03-01T07:37:21.970Z,56.01
2019-03-01T07:38:26.162Z,55.92
2019-03-01T07:39:29.739Z,55.82
2019-03-01T07:40:35.652Z,55.80
2019-03-01T07:41:39.182Z,55.81
2019-03-01T07:42:42.661Z,55.70
2019-03-01T07:43:46.249Z,55.65
2019-03-01T07:44:49.745Z,55.58
2019-03-01T07:45:53.290Z,55.54
2019-03-01T07:46:58.220Z,55.48
2019-03-01T07:48:01.806Z,55.43
2019-03-01T07:49:05.510Z,55.64
2019-03-01T07:50:11.866Z,55.70
2019-03-01T07:51:15.391Z,55.89
2019-03-01T07:52:19.284Z,55.85
2019-03-01T07:53:22.791Z,55.70
2019-03-01T07:54:26.358Z,55.42
2019-03-01T07:55:29.856Z,55.26
2019-03-01T07:56:37.008Z,55.18
2019-03-01T07:57:39.083Z,55.03
2019-03-01T07:58:42.920Z,54.96
2019-03-01T07:59:46.477Z,54.79
2019-03-01T08:00:53.572Z,54.81
2019-03-01T08:01:55.989Z,54.70
2019-03-01T08:02:59.641Z,54.72
2019-03-01T08:04:03.207Z,54.68
2019-03-01T08:05:10.170Z,54.72
2019-03-01T08:06:14.326Z,54.75
2019-03-01T08:07:20.438Z,54.86
2019-03-01T08:08:23.174Z,54.96
2019-03-01T08:09:26.771Z,54.99
2019-03-01T08:10:33.017Z,55.12
2019-03-01T08:11:36.580Z,55.18
2019-03-01T08:12:42.345Z,55.19
2019-03-01T08:13:45.540Z,55.23
2019-03-01T08:14:49.046Z,55.18
2019-03-01T08:15:52.626Z,54.95
2019-03-01T08:16:56.797Z,54.82
2019-03-01T08:18:00.654Z,54.62
2019-03-01T08:19:04.591Z,54.48
2019-03-01T08:20:11.350Z,54.47
2019-03-01T08:21:15.154Z,54.44
2019-03-01T08:22:24.909Z,54.37
2019-03-01T08:23:37.517Z,54.38
2019-03-01T08:24:42.760Z,54.40
2019-03-01T08:25:46.466Z,54.38
2019-03-01T08:26:49.951Z,54.33
2019-03-01T08:27:53.530Z,54.29
2019-03-01T08:28:58.429Z,54.26
2019-03-01T08:30:02.325Z,54.18
2019-03-01T08:31:05.947Z,54.20
2019-03-01T08:32:09.519Z,54.29
2019-03-01T08:33:13.161Z,54.26
2019-03-01T08:34:18.673Z,54.19
2019-03-01T08:35:25.382Z,54.04
2019-03-01T08:36:27.475Z,53.94
2019-03-01T08:37:30.987Z,53.85
2019-03-01T08:38:34.495Z,53.63
2019-03-01T08:39:39.731Z,53.29
2019-03-01T08:40:46.601Z,53.08
2019-03-01T08:41:49.136Z,53.03
2019-03-01T08:42:52.636Z,52.98
2019-03-01T08:43:56.206Z,52.80
2019-03-01T08:44:59.789Z,52.75
2019-03-01T08:46:34.585Z,52.67
2019-03-01T08:48:02.980Z,52.30
2019-03-01T08:49:10.071Z,52.28
2019-03-01T08:50:14.080Z,52.30
2019-03-01T08:51:17.596Z,52.34
2019-03-01T08:52:21.106Z,52.40
2019-03-01T08:53:24.611Z,52.41
2019-03-01T08:54:28.145Z,52.42
2019-03-01T08:55:32.144Z,52.43
2019-03-01T08:56:35.632Z,52.47
2019-03-01T08:57:44.275Z,52.43
2019-03-01T08:58:44.515Z,52.37
2019-03-01T08:59:48.017Z,52.30
2019-03-01T09:00:59.297Z,52.30
2019-03-01T09:01:57.940Z,52.26
2019-03-01T09:03:09.915Z,52.25
2019-03-01T09:04:30.416Z,52.18
2019-03-01T09:05:36.876Z,52.16
2019-03-01T09:06:41.780Z,52.14
2019-03-01T09:07:45.561Z,52.20
2019-03-01T09:08:54.034Z,52.25
2019-03-01T09:10:01.020Z,52.26
2019-03-01T09:11:05.590Z,52.31
2019-03-01T09:12:09.978Z,52.34
2019-03-01T09:13:13.514Z,52.32
2019-03-01T09:14:17.077Z,52.34
2019-03-01T09:15:20.806Z,52.33
2019-03-01T09:16:25.268Z,52.39
2019-03-01T09:17:28.900Z,52.44
2019-03-01T09:18:33.959Z,52.43
2019-03-01T09:19:38.192Z,52.36
2019-03-01T09:20:41.748Z,52.32
2019-03-01T09:21:49.940Z,52.30
2019-03-01T09:22:51.086Z,52.30
2019-03-01T09:23:55.169Z,52.31
2019-03-01T09:24:58.694Z,52.37
2019-03-01T09:26:02.337Z,52.42
2019-03-01T09:27:05.936Z,52.41
2019-03-01T09:28:09.718Z,52.39
2019-03-01T09:29:18.376Z,52.38
2019-03-01T09:30:21.145Z,52.42
2019-03-01T09:31:24.630Z,52.46
2019-03-01T09:32:30.439Z,52.50
2019-03-01T09:33:33.523Z,52.50
2019-03-01T09:34:37.109Z,52.52
2019-03-01T09:35:49.903Z,52.50
2019-03-01T09:36:54.724Z,52.53
2019-03-01T09:37:58.785Z,52.61
2019-03-01T09:39:02.644Z,53.09
2019-03-01T09:40:06.710Z,53.09
2019-03-01T09:41:10.340Z,52.56
2019-03-01T09:42:15.602Z,52.49
2019-03-01T09:43:19.606Z,52.52
2019-03-01T09:44:23.229Z,52.54
2019-03-01T09:45:35.889Z,52.58
2019-03-01T09:46:32.420Z,52.55
2019-03-01T09:47:36.935Z,52.57
2019-03-01T09:48:41.281Z,52.59
2019-03-01T09:49:45.188Z,52.63
2019-03-01T09:50:48.832Z,52.64
2019-03-01T09:51:52.382Z,52.64
2019-03-01T09:52:58.965Z,53.76
2019-03-01T09:54:01.282Z,55.34
2019-03-01T09:55:07.237Z,58.39
2019-03-01T09:56:14.313Z,62.53
2019-03-01T09:57:17.874Z,63.29
2019-03-01T09:58:21.642Z,58.39
2019-03-01T09:59:25.154Z,57.85
2019-03-01T10:00:37.406Z,57.76
2019-03-01T10:01:41.073Z,57.16
2019-03-01T10:02:44.697Z,56.87
2019-03-01T10:03:48.832Z,56.58
2019-03-01T10:04:52.415Z,56.20
2019-03-01T10:05:55.939Z,55.89
2019-03-01T10:06:59.550Z,55.73
2019-03-01T10:08:07.681Z,55.55
2019-03-01T10:09:11.669Z,55.38
2019-03-01T10:10:20.918Z,55.32
2019-03-01T10:11:24.409Z,54.80
2019-03-01T10:12:27.941Z,54.80
2019-03-01T10:13:31.528Z,55.06
2019-03-01T10:14:35.101Z,55.01
2019-03-01T10:15:38.775Z,55.04
2019-03-01T10:16:42.355Z,54.97
2019-03-01T10:17:46.001Z,54.88
2019-03-01T10:18:52.609Z,54.89
2019-03-01T10:19:56.207Z,54.87
2019-03-01T10:20:59.710Z,54.84
2019-03-01T10:22:03.460Z,54.83
2019-03-01T10:23:06.983Z,54.83
2019-03-01T10:24:10.534Z,54.82
2019-03-01T10:25:18.101Z,54.87
2019-03-01T10:26:21.694Z,54.86
2019-03-01T10:27:25.160Z,54.89
2019-03-01T10:28:34.262Z,54.87
2019-03-01T10:29:37.815Z,54.84
2019-03-01T10:30:41.462Z,54.88
2019-03-01T10:33:08.005Z,54.87
2019-03-01T10:34:11.566Z,54.89
2019-03-01T10:35:17.058Z,54.88
2019-03-01T10:36:20.539Z,54.82
2019-03-01T10:37:24.526Z,54.81
2019-03-01T10:38:30.040Z,54.75
2019-03-01T10:39:34.822Z,54.70
2019-03-01T10:40:38.447Z,54.67
2019-03-01T10:41:41.936Z,54.73
2019-03-01T10:42:45.544Z,54.70
2019-03-01T10:43:49.161Z,54.66
2019-03-01T10:44:52.691Z,54.71
2019-03-01T10:45:56.362Z,54.65
2019-03-01T10:46:59.936Z,54.65
2019-03-01T10:48:03.549Z,54.66
2019-03-01T10:49:07.281Z,54.66
2019-03-01T10:50:12.311Z,54.69
2019-03-01T10:51:15.861Z,54.69
2019-03-01T10:52:19.457Z,54.68
2019-03-01T10:53:23.050Z,54.71
2019-03-01T10:54:26.621Z,54.73
2019-03-01T10:55:30.194Z,54.74
2019-03-01T10:56:33.763Z,54.78
2019-03-01T10:57:37.356Z,54.85
2019-03-01T10:58:40.860Z,54.92
2019-03-01T10:59:44.481Z,54.93
2019-03-01T11:00:48.131Z,54.99
2019-03-01T11:01:51.684Z,55.01
2019-03-01T11:02:56.348Z,54.82
2019-03-01T11:03:59.960Z,54.82
2019-03-01T11:05:03.830Z,55.01
2019-03-01T11:06:07.429Z,54.98
2019-03-01T11:07:11.066Z,54.90
2019-03-01T11:08:14.580Z,54.90
2019-03-01T11:09:18.185Z,54.84
2019-03-01T11:10:27.305Z,54.85
2019-03-01T11:11:30.794Z,54.82
2019-03-01T11:12:34.334Z,54.81
2019-03-01T11:13:37.981Z,54.76
2019-03-01T11:14:41.510Z,54.76
2019-03-01T11:15:45.049Z,54.74
2019-03-01T11:16:48.589Z,54.76
2019-03-01T11:17:52.093Z,54.74
2019-03-01T11:18:55.672Z,54.76
2019-03-01T11:19:59.237Z,54.76
2019-03-01T11:21:02.788Z,54.75
2019-03-01T11:22:06.347Z,54.77
2019-03-01T11:23:10.027Z,54.77
2019-03-01T11:24:13.592Z,54.76
2019-03-01T11:25:19.131Z,54.79
2019-03-01T11:26:22.690Z,54.77
2019-03-01T11:27:26.290Z,54.78
2019-03-01T11:28:29.952Z,54.78
2019-03-01T11:29:33.538Z,54.78
2019-03-01T11:30:37.814Z,54.77
2019-03-01T11:31:41.318Z,54.78
2019-03-01T11:32:45.106Z,54.79
2019-03-01T11:33:48.715Z,54.81
2019-03-01T11:34:52.221Z,54.83
2019-03-01T11:35:55.782Z,54.85
2019-03-01T11:36:59.347Z,54.82
2019-03-01T11:38:03.107Z,54.82
2019-03-01T11:39:06.850Z,54.82
2019-03-01T11:40:13.380Z,54.83
2019-03-01T11:41:18.937Z,54.84
2019-03-01T11:42:22.403Z,54.83
2019-03-01T11:43:26.039Z,54.88
2019-03-01T11:44:29.615Z,54.90
2019-03-01T11:45:33.475Z,54.91
2019-03-01T11:46:37.126Z,54.89
2019-03-01T11:47:40.645Z,54.86
2019-03-01T11:48:44.149Z,54.81
2019-03-01T11:49:47.630Z,54.76
2019-03-01T11:50:51.144Z,54.74
2019-03-01T11:51:54.715Z,54.69
2019-03-01T11:52:58.389Z,54.67
2019-03-01T11:54:01.896Z,54.65
2019-03-01T11:55:07.410Z,54.64
2019-03-01T11:56:10.987Z,54.58
2019-03-01T11:57:14.628Z,54.59
2019-03-01T11:58:18.247Z,54.56
2019-03-01T11:59:21.708Z,54.53
2019-03-01T12:00:26.145Z,54.48
2019-03-01T12:01:29.778Z,54.49
2019-03-01T12:02:33.293Z,54.48
2019-03-01T12:03:36.791Z,54.49
2019-03-01T12:04:40.431Z,54.49
2019-03-01T12:05:44.117Z,54.47
2019-03-01T12:06:47.680Z,54.48
2019-03-01T12:07:51.570Z,54.48
2019-03-01T12:08:55.257Z,54.47
2019-03-01T12:09:58.784Z,54.48
2019-03-01T12:11:02.356Z,54.46
2019-03-01T12:12:05.988Z,54.48
2019-03-01T12:13:09.595Z,54.46
2019-03-01T12:14:13.100Z,54.47
2019-03-01T12:15:16.834Z,54.45
2019-03-01T12:16:20.381Z,54.42
2019-03-01T12:17:23.942Z,54.41
2019-03-01T12:18:27.539Z,54.34
2019-03-01T12:19:31.037Z,54.30
2019-03-01T12:20:34.603Z,54.26
2019-03-01T12:21:38.189Z,54.26
2019-03-01T12:22:41.706Z,54.24
2019-03-01T12:23:45.241Z,54.24
2019-03-01T12:24:48.778Z,54.23
2019-03-01T12:25:52.362Z,54.20
2019-03-01T12:26:55.849Z,54.20
2019-03-01T12:27:59.404Z,54.19
2019-03-01T12:29:02.996Z,54.22
2019-03-01T12:30:18.250Z,54.23
2019-03-01T12:31:21.744Z,54.22
2019-03-01T12:32:25.378Z,54.24
2019-03-01T12:33:28.899Z,54.29
2019-03-01T12:34:32.521Z,54.27
2019-03-01T12:35:36.075Z,54.27
2019-03-01T12:36:39.903Z,54.22
2019-03-01T12:37:43.552Z,54.20
2019-03-01T12:38:47.132Z,54.18
2019-03-01T12:39:50.685Z,54.19
2019-03-01T12:40:54.165Z,54.12
2019-03-01T12:41:57.865Z,54.11
2019-03-01T12:43:01.407Z,54.12
2019-03-01T12:44:05.048Z,54.13
2019-03-01T12:45:13.898Z,54.09
2019-03-01T12:46:17.535Z,54.08
2019-03-01T12:47:21.024Z,54.07
2019-03-01T12:48:24.685Z,54.05
2019-03-01T12:49:28.193Z,54.05
2019-03-01T12:50:31.864Z,54.05
2019-03-01T12:51:35.445Z,54.04
2019-03-01T12:52:39.010Z,54.10
2019-03-01T12:53:42.541Z,54.14
2019-03-01T12:54:46.087Z,54.13
2019-03-01T12:55:49.744Z,54.15
2019-03-01T12:56:53.265Z,54.12
2019-03-01T12:57:56.829Z,54.12
2019-03-01T12:59:00.348Z,54.07
2019-03-01T13:00:05.768Z,54.03
2019-03-01T13:01:09.686Z,54.04
2019-03-01T13:02:13.388Z,54.00
2019-03-01T13:03:17.097Z,53.95
2019-03-01T13:04:20.992Z,53.94
2019-03-01T13:05:25.706Z,53.95
2019-03-01T13:06:30.047Z,53.89
2019-03-01T13:07:33.710Z,53.87
2019-03-01T13:08:37.298Z,53.88
2019-03-01T13:09:40.778Z,53.86
2019-03-01T13:10:46.081Z,53.91
2019-03-01T13:11:51.307Z,53.90
2019-03-01T13:12:55.058Z,53.93
2019-03-01T13:13:58.578Z,53.95
2019-03-01T13:15:02.131Z,54.00
2019-03-01T13:16:05.729Z,53.97
2019-03-01T13:17:09.290Z,53.95
2019-03-01T13:18:15.764Z,53.90
2019-03-01T13:19:18.089Z,53.87
2019-03-01T13:20:21.720Z,53.86
2019-03-01T13:21:25.202Z,53.83
2019-03-01T13:22:28.813Z,53.67
2019-03-01T13:23:32.316Z,53.54
2019-03-01T13:24:35.827Z,53.48
2019-03-01T13:25:39.357Z,53.49
2019-03-01T13:26:42.877Z,53.47
2019-03-01T13:27:48.662Z,53.43
2019-03-01T13:28:51.900Z,53.45
2019-03-01T13:29:58.557Z,53.41
2019-03-01T13:31:00.677Z,53.46
2019-03-01T13:32:04.194Z,53.48
2019-03-01T13:33:07.728Z,53.53
2019-03-01T13:34:13.767Z,53.59
2019-03-01T13:35:18.334Z,53.50
2019-03-01T13:36:21.857Z,53.54
2019-03-01T13:37:25.350Z,53.47
2019-03-01T13:38:30.443Z,53.43
2019-03-01T13:39:34.329Z,53.43
2019-03-01T13:40:37.911Z,53.43
2019-03-01T13:41:41.426Z,53.45
2019-03-01T13:42:47.256Z,53.47
2019-03-01T13:43:50.391Z,53.49
2019-03-01T13:44:54.108Z,53.49
2019-03-01T13:45:57.663Z,53.50
2019-03-01T13:47:01.253Z,53.54
2019-03-01T13:48:04.906Z,53.56
2019-03-01T13:49:08.602Z,53.59
2019-03-01T13:50:14.927Z,53.65
2019-03-01T13:51:20.154Z,53.69
2019-03-01T13:52:26.652Z,53.71
2019-03-01T13:53:30.228Z,53.72
2019-03-01T13:54:35.042Z,53.76
2019-03-01T13:55:38.583Z,53.73
2019-03-01T13:56:42.749Z,53.71
2019-03-01T13:58:52.639Z,53.67
2019-03-01T13:59:56.180Z,53.70
2019-03-01T14:00:59.923Z,53.70
2019-03-01T14:02:04.404Z,53.69
2019-03-01T14:03:08.646Z,53.71
2019-03-01T14:04:12.170Z,53.75
2019-03-01T14:05:17.383Z,53.79
2019-03-01T14:06:21.100Z,53.82
2019-03-01T14:07:24.595Z,53.84
2019-03-01T14:08:28.181Z,53.88
2019-03-01T14:09:31.801Z,54.28
2019-03-01T14:10:38.559Z,54.28
2019-03-01T14:11:40.666Z,53.99
2019-03-01T14:12:44.201Z,54.02